createdAt,value
2023-02-19T00:01:23.244Z,94706.97
2023-02-19T00:03:53.307Z,94702.31
2023-02-19T00:06:21.487Z,94699.13
2023-02-19T00:08:48.428Z,94688.47
2023-02-19T00:11:20.283Z,94702.22
2023-02-19T00:13:51.033Z,94706.09
2023-02-19T00:16:23.096Z,94699.56
2023-02-19T00:18:50.349Z,94701.41
2023-02-19T00:21:17.534Z,94700.34
2023-02-19T00:23:48.082Z,94703.47
2023-02-19T00:26:18.451Z,94693.34
2023-02-19T00:28:48.813Z,94680.09
2023-02-19T00:31:18.027Z,94687.09
2023-02-19T00:33:45.914Z,94687.84
2023-02-19T00:36:13.395Z,94687.84
2023-02-19T00:38:41.985Z,94680.59
2023-02-19T00:41:21.637Z,94675.91
2023-02-19T00:43:56.656Z,94674.84
2023-02-19T00:46:26.698Z,94678.50
2023-02-19T00:48:53.894Z,94679.47
2023-02-19T00:51:22.552Z,94674.28
2023-02-19T00:53:49.450Z,94662.88
2023-02-19T00:56:16.535Z,94667.25
2023-02-19T00:58:43.060Z,94662.34
2023-02-19T01:01:11.639Z,94662.03
2023-02-19T01:03:39.050Z,94666.69
2023-02-19T01:06:08.417Z,94668.25
2023-02-19T01:08:35.956Z,94675.78
2023-02-19T01:11:05.106Z,94674.72
2023-02-19T01:13:32.527Z,94669.56
2023-02-19T01:16:19.810Z,94674.44
2023-02-19T01:18:47.647Z,94653.44
2023-02-19T01:21:23.852Z,94661.72
2023-02-19T01:23:51.285Z,94667.72
2023-02-19T01:26:23.662Z,94668.22
2023-02-19T01:28:50.536Z,94669.25
2023-02-19T01:31:20.718Z,94670.31
2023-02-19T01:33:49.217Z,94666.94
2023-02-19T01:36:16.444Z,94658.34
2023-02-19T01:38:43.386Z,94653.44
2023-02-19T01:41:13.261Z,94653.44
2023-02-19T01:44:04.187Z,94647.97
2023-02-19T01:46:33.361Z,94651.38
2023-02-19T01:49:06.108Z,94651.91
2023-02-19T01:51:35.289Z,94635.56
2023-02-19T01:54:05.392Z,94645.22
2023-02-19T01:56:34.827Z,94633.78
2023-02-19T01:59:02.020Z,94627.06
2023-02-19T02:01:28.690Z,94626.56
2023-02-19T02:03:55.470Z,94624.22
2023-02-19T02:06:29.529Z,94621.34
2023-02-19T02:09:16.009Z,94619.78
2023-02-19T02:11:47.700Z,94611.75
2023-02-19T02:14:17.220Z,94594.84
2023-02-19T02:17:01.956Z,94601.59
2023-02-19T02:20:03.283Z,94595.34
2023-02-19T02:22:46.156Z,94580.78
2023-02-19T02:25:19.382Z,94584.44
2023-02-19T02:28:23.340Z,94588.59
2023-02-19T02:31:02.703Z,94592.22
2023-02-19T02:33:48.656Z,94582.63
2023-02-19T02:36:20.392Z,94583.41
2023-02-19T02:38:48.708Z,94591.47
2023-02-19T02:41:16.210Z,94591.72
2023-02-19T02:43:42.762Z,94581.63
2023-02-19T02:46:12.250Z,94578.25
2023-02-19T02:48:56.507Z,94581.63
2023-02-19T02:51:27.225Z,94571.97
2023-02-19T02:54:39.361Z,94563.44
2023-02-19T02:57:14.694Z,94566.03
2023-02-19T02:59:49.062Z,94570.44
2023-02-19T03:02:24.671Z,94554.84
2023-02-19T03:05:36.128Z,94556.94
2023-02-19T03:08:20.412Z,94569.94
2023-02-19T03:11:19.879Z,94544.19
2023-02-19T03:14:06.099Z,94555.38
2023-02-19T03:16:56.319Z,94547.09
2023-02-19T03:19:27.401Z,94549.16
2023-02-19T03:22:00.178Z,94540.88
2023-02-19T03:24:51.091Z,94549.75
2023-02-19T03:27:20.944Z,94533.19
2023-02-19T03:29:54.549Z,94539.13
2023-02-19T03:32:29.693Z,94537.28
2023-02-19T03:35:13.721Z,94539.16
2023-02-19T03:38:29.783Z,94552.66
2023-02-19T03:41:09.623Z,94532.38
2023-02-19T03:44:02.972Z,94539.38
2023-02-19T03:47:03.643Z,94545.91
2023-02-19T03:49:47.923Z,94545.13
2023-02-19T03:52:41.445Z,94539.16
2023-02-19T03:55:17.888Z,94544.91
2023-02-19T03:57:58.325Z,94549.56
2023-02-19T04:00:31.638Z,94546.75
2023-02-19T04:03:29.192Z,94546.22
2023-02-19T04:06:01.836Z,94551.47
2023-02-19T04:08:31.536Z,94560.88
2023-02-19T04:11:07.400Z,94548.44
2023-02-19T04:13:45.795Z,94560.88
2023-02-19T04:16:20.412Z,94558.84
2023-02-19T04:18:51.342Z,94555.75
2023-02-19T04:21:20.421Z,94559.38
2023-02-19T04:23:47.700Z,94566.63
2023-02-19T04:26:16.422Z,94564.56
2023-02-19T04:28:44.152Z,94561.75
2023-02-19T04:31:11.654Z,94567.72
2023-02-19T04:33:38.401Z,94569.53
2023-02-19T04:36:05.363Z,94578.13
2023-02-19T04:38:31.776Z,94579.19
2023-02-19T04:40:58.338Z,94579.97
2023-02-19T04:43:24.769Z,94576.59
2023-02-19T04:45:51.208Z,94595.56
2023-02-19T04:48:17.637Z,94593.78
2023-02-19T04:50:44.046Z,94585.22
2023-02-19T04:53:10.463Z,94593.25
2023-02-19T04:55:38.180Z,94587.06
2023-02-19T04:58:04.792Z,94598.50
2023-02-19T05:00:31.752Z,94592.31
2023-02-19T05:02:58.203Z,94591.75
2023-02-19T05:05:24.625Z,94592.03
2023-02-19T05:07:51.013Z,94597.75
2023-02-19T05:10:17.538Z,94604.25
2023-02-19T05:12:43.958Z,94617.75
2023-02-19T05:15:10.399Z,94620.88
2023-02-19T05:17:36.836Z,94613.09
2023-02-19T05:20:03.620Z,94598.81
2023-02-19T05:22:30.242Z,94613.06
2023-02-19T05:24:56.636Z,94628.66
2023-02-19T05:27:23.054Z,94611.53
2023-02-19T05:29:49.439Z,94615.69
2023-02-19T05:32:15.956Z,94614.41
2023-02-19T05:34:42.414Z,94617.25
2023-02-19T05:37:08.830Z,94617.53
2023-02-19T05:39:35.313Z,94633.31
2023-02-19T05:42:01.732Z,94640.59
2023-02-19T05:44:28.168Z,94639.03
2023-02-19T05:46:54.560Z,94638.81
2023-02-19T05:49:20.937Z,94648.38
2023-02-19T05:51:50.760Z,94638.25
2023-02-19T05:54:17.171Z,94641.91
2023-02-19T05:56:43.620Z,94652.53
2023-02-19T05:59:21.606Z,94648.41
2023-02-19T06:01:50.008Z,94655.63
2023-02-19T06:04:17.173Z,94658.22
2023-02-19T06:06:43.728Z,94666.28
2023-02-19T06:09:10.967Z,94650.19
2023-02-19T06:11:37.633Z,94659.28
2023-02-19T06:14:05.108Z,94654.09
2023-02-19T06:16:33.596Z,94662.91
2023-02-19T06:19:03.771Z,94669.13
2023-02-19T06:21:30.270Z,94652.78
2023-02-19T06:23:56.692Z,94669.63
2023-02-19T06:26:24.912Z,94667.03
2023-02-19T06:28:53.156Z,94673.78
2023-02-19T06:31:22.346Z,94668.88
2023-02-19T06:33:50.546Z,94664.44
2023-02-19T06:36:19.693Z,94676.13
2023-02-19T06:38:46.424Z,94673.00
2023-02-19T06:41:13.512Z,94685.97
2023-02-19T06:43:40.532Z,94705.41
2023-02-19T06:46:07.861Z,94681.31
2023-02-19T06:48:34.855Z,94687.28
2023-02-19T06:51:01.302Z,94689.34
2023-02-19T06:53:27.804Z,94688.56
2023-02-19T06:55:57.345Z,94687.28
2023-02-19T06:58:23.833Z,94689.06
2023-02-19T07:00:50.304Z,94690.09
2023-02-19T07:03:16.760Z,94702.28
2023-02-19T07:05:43.839Z,94697.38
2023-02-19T07:08:10.311Z,94699.69
2023-02-19T07:10:36.714Z,94702.00
2023-02-19T07:13:03.172Z,94712.88
2023-02-19T07:15:29.814Z,94707.44
2023-02-19T07:17:56.210Z,94718.03
2023-02-19T07:20:22.614Z,94726.59
2023-02-19T07:22:49.006Z,94710.75
2023-02-19T07:25:15.472Z,94724.78
2023-02-19T07:27:41.889Z,94695.44
2023-02-19T07:30:08.958Z,94737.72
2023-02-19T07:32:35.376Z,94735.16
2023-02-19T07:35:01.767Z,94753.28
2023-02-19T07:37:28.241Z,94755.59
2023-02-19T07:39:54.616Z,94759.75
2023-02-19T07:42:21.015Z,94752.50
2023-02-19T07:44:47.432Z,94752.00
2023-02-19T07:47:13.826Z,94739.81
2023-02-19T07:49:40.201Z,94753.56
2023-02-19T07:52:06.613Z,94761.06
2023-02-19T07:54:33.030Z,94751.00
2023-02-19T07:56:59.738Z,94755.91
2023-02-19T07:59:26.129Z,94771.72
2023-02-19T08:02:11.237Z,94761.66
2023-02-19T08:04:37.686Z,94764.25
2023-02-19T08:07:05.324Z,94769.44
2023-02-19T08:09:33.283Z,94791.47
2023-02-19T08:12:18.408Z,94768.16
2023-02-19T08:14:44.852Z,94774.91
2023-02-19T08:17:11.312Z,94782.41
2023-02-19T08:19:37.857Z,94777.50
2023-02-19T08:22:04.273Z,94789.97
2023-02-19T08:24:33.700Z,94788.41
2023-02-19T08:27:00.124Z,94786.34
2023-02-19T08:29:26.630Z,94794.38
2023-02-19T08:31:53.106Z,94796.72
2023-02-19T08:34:19.524Z,94814.59
2023-02-19T08:36:45.914Z,94805.03
2023-02-19T08:39:12.312Z,94811.00
2023-02-19T08:41:38.754Z,94814.38
2023-02-19T08:44:05.194Z,94830.72
2023-02-19T08:46:33.482Z,94814.38
2023-02-19T08:49:00.761Z,94822.94
2023-02-19T08:51:27.252Z,94809.19
2023-02-19T08:53:53.637Z,94816.97
2023-02-19T08:56:20.117Z,94838.50
2023-02-19T08:58:46.608Z,94839.25
2023-02-19T09:01:15.683Z,94837.72
2023-02-19T09:03:42.717Z,94847.31
2023-02-19T09:06:16.149Z,94848.09
2023-02-19T09:08:42.621Z,94841.84
2023-02-19T09:11:09.287Z,94847.56
2023-02-19T09:13:35.872Z,94852.75
2023-02-19T09:16:05.928Z,94861.06
2023-02-19T09:18:32.531Z,94862.88
2023-02-19T09:21:04.598Z,94865.50
2023-02-19T09:23:35.324Z,94863.16
2023-02-19T09:26:06.525Z,94867.06
2023-02-19T09:28:33.103Z,94877.69
2023-02-19T09:31:07.296Z,94883.41
2023-02-19T09:33:33.752Z,94896.88
2023-02-19T09:36:02.835Z,94899.44
2023-02-19T09:38:30.820Z,94904.34
2023-02-19T09:40:58.899Z,94905.13
2023-02-19T09:43:29.091Z,94901.53
2023-02-19T09:46:02.971Z,94940.72
2023-02-19T09:48:29.543Z,94899.75
2023-02-19T09:50:57.961Z,94906.53
2023-02-19T09:53:33.789Z,94904.44
2023-02-19T09:56:01.377Z,94923.94
2023-02-19T09:58:33.361Z,94920.28
2023-02-19T10:01:03.384Z,94924.72
2023-02-19T10:03:34.866Z,94913.28
2023-02-19T10:06:24.690Z,94940.53
2023-02-19T10:09:18.157Z,94923.44
2023-02-19T10:11:45.032Z,94942.38
2023-02-19T10:14:21.955Z,94931.22
2023-02-19T10:16:50.145Z,94932.75
2023-02-19T10:19:16.962Z,94926.53
2023-02-19T10:21:44.104Z,94921.09
2023-02-19T10:24:21.206Z,94931.22
2023-02-19T10:26:49.416Z,94921.38
2023-02-19T10:29:15.853Z,94918.81
2023-02-19T10:31:42.440Z,94911.78
2023-02-19T10:34:19.343Z,94929.22
2023-02-19T10:36:48.519Z,94921.19
2023-02-19T10:39:29.704Z,94908.72
2023-02-19T10:41:56.237Z,94910.78
2023-02-19T10:44:29.320Z,94914.19
2023-02-19T10:46:58.948Z,94921.97
2023-02-19T10:49:40.157Z,94938.59
2023-02-19T10:52:17.945Z,94939.88
2023-02-19T10:54:46.032Z,94924.50
2023-02-19T10:57:15.213Z,94920.34
2023-02-19T10:59:51.526Z,94930.75
2023-02-19T11:02:20.497Z,94929.44
2023-02-19T11:05:18.183Z,94931.78
2023-02-19T11:07:55.880Z,94934.66
2023-02-19T11:10:28.659Z,94922.94
2023-02-19T11:13:02.046Z,94925.03
2023-02-19T11:15:32.156Z,94940.63
2023-02-19T11:18:36.037Z,94937.50
2023-02-19T11:21:05.398Z,94923.97
2023-02-19T11:23:38.345Z,94920.59
2023-02-19T11:26:07.178Z,94920.59
2023-02-19T11:28:39.375Z,94926.34
2023-02-19T11:31:27.049Z,94920.34
2023-02-19T11:33:57.163Z,94936.47
2023-02-19T11:36:23.538Z,94940.88
2023-02-19T11:38:50.013Z,94916.72
2023-02-19T11:41:41.709Z,94923.75
2023-02-19T11:44:46.507Z,94943.22
2023-02-19T11:47:45.361Z,94939.88
2023-02-19T11:50:42.875Z,94940.63
2023-02-19T11:53:29.681Z,94934.38
2023-02-19T11:56:12.795Z,94942.97
2023-02-19T11:59:00.659Z,94953.38
2023-02-19T12:01:54.190Z,94944.53
2023-02-19T12:04:55.936Z,94937.00
2023-02-19T12:07:40.908Z,94951.06
2023-02-19T12:10:21.058Z,94957.81
2023-02-19T12:12:54.496Z,94955.97
2023-02-19T12:15:39.701Z,94953.13
2023-02-19T12:18:40.939Z,94958.06
2023-02-19T12:21:33.867Z,94942.69
2023-02-19T12:24:30.357Z,94954.16
2023-02-19T12:27:24.502Z,94958.81
2023-02-19T12:30:14.192Z,94957.28
2023-02-19T12:33:09.303Z,94959.13
2023-02-19T12:35:46.393Z,94957.56
2023-02-19T12:38:33.366Z,94961.97
2023-02-19T12:41:26.670Z,94955.50
2023-02-19T12:43:58.745Z,94950.56
2023-02-19T12:46:32.238Z,94959.13
2023-02-19T12:49:05.634Z,94967.16
2023-02-19T12:51:55.211Z,94952.63
2023-02-19T12:54:34.715Z,94939.63
2023-02-19T12:57:06.540Z,94943.25
2023-02-19T12:59:43.788Z,94980.69
2023-02-19T13:02:13.116Z,94950.78
2023-02-19T13:04:55.914Z,94938.84
2023-02-19T13:07:39.239Z,94921.69
2023-02-19T13:10:33.791Z,94928.72
2023-02-19T13:13:06.247Z,94936.78
2023-02-19T13:15:42.173Z,94946.38
2023-02-19T13:18:20.339Z,94960.94
2023-02-19T13:20:48.844Z,94951.59
2023-02-19T13:23:47.753Z,94954.94
2023-02-19T13:26:45.344Z,94945.84
2023-02-19T13:29:39.624Z,94953.41
2023-02-19T13:32:29.985Z,94947.94
2023-02-19T13:35:53.433Z,94938.06
2023-02-19T13:38:20.502Z,94956.25
2023-02-19T13:40:55.654Z,94956.47
2023-02-19T13:43:34.701Z,94946.38
2023-02-19T13:46:10.714Z,94937.56
2023-02-19T13:48:39.234Z,94957.31
2023-02-19T13:51:23.587Z,94953.41
2023-02-19T13:54:00.477Z,94955.75
2023-02-19T13:56:30.048Z,94956.28
2023-02-19T13:58:57.812Z,94967.69
2023-02-19T14:01:58.262Z,94952.09
2023-02-19T14:04:41.907Z,94954.19
2023-02-19T14:07:08.263Z,94950.81
2023-02-19T14:09:43.947Z,94955.75
2023-02-19T14:12:10.386Z,94947.16
2023-02-19T14:14:53.410Z,94950.03
2023-02-19T14:17:25.891Z,94946.38
2023-02-19T14:19:56.326Z,94933.91
2023-02-19T14:22:44.724Z,94933.66
2023-02-19T14:25:30.805Z,94932.88
2023-02-19T14:28:30.354Z,94931.34
2023-02-19T14:31:01.295Z,94939.38
2023-02-19T14:33:37.679Z,94946.13
2023-02-19T14:36:20.034Z,94948.72
2023-02-19T14:39:11.927Z,94947.94
2023-02-19T14:41:41.142Z,94946.38
2023-02-19T14:44:27.662Z,94937.78
2023-02-19T14:47:09.575Z,94960.41
2023-02-19T14:49:44.345Z,94969.75
2023-02-19T14:52:20.408Z,94972.59
2023-02-19T14:54:56.254Z,94966.63
2023-02-19T14:57:35.727Z,94970.53
2023-02-19T15:00:19.842Z,94977.25
2023-02-19T15:02:46.319Z,94980.63
2023-02-19T15:05:17.565Z,94987.13
2023-02-19T15:07:44.404Z,94985.31
2023-02-19T15:10:14.080Z,94993.03
2023-02-19T15:12:52.355Z,94999.78
2023-02-19T15:15:23.021Z,94997.41
2023-02-19T15:17:50.998Z,94995.59
2023-02-19T15:20:22.495Z,94998.19
2023-02-19T15:22:49.518Z,95001.81
2023-02-19T15:25:19.106Z,95004.91
2023-02-19T15:27:45.780Z,95015.22
2023-02-19T15:30:20.638Z,95026.38
2023-02-19T15:32:56.106Z,95029.47
2023-02-19T15:35:24.996Z,95028.13
2023-02-19T15:37:52.750Z,95025.75
2023-02-19T15:40:23.688Z,95035.34
2023-02-19T15:42:50.143Z,95033.75
2023-02-19T15:45:24.973Z,95033.72
2023-02-19T15:48:03.602Z,95017.63
2023-02-19T15:50:33.314Z,95010.03
2023-02-19T15:53:09.219Z,95016.69
2023-02-19T15:55:53.099Z,95009.19
2023-02-19T15:58:22.173Z,95006.31
2023-02-19T16:00:53.068Z,95002.91
2023-02-19T16:03:23.075Z,95005.50
2023-02-19T16:06:05.170Z,95012.50
2023-02-19T16:08:36.707Z,95014.06
2023-02-19T16:11:06.586Z,95021.59
2023-02-19T16:13:34.919Z,95017.47
2023-02-19T16:16:15.315Z,95016.41
2023-02-19T16:18:47.653Z,95012.28
2023-02-19T16:21:16.744Z,95016.19
2023-02-19T16:23:45.309Z,95015.38
2023-02-19T16:26:12.305Z,95017.19
2023-02-19T16:28:40.925Z,95023.94
2023-02-19T16:31:10.858Z,95027.03
2023-02-19T16:33:48.206Z,95033.31
2023-02-19T16:36:26.390Z,95034.06
2023-02-19T16:39:08.623Z,95041.84
2023-02-19T16:41:41.112Z,95040.81
2023-02-19T16:44:37.460Z,95025.78
2023-02-19T16:47:12.390Z,95041.34
2023-02-19T16:49:38.850Z,95040.06
2023-02-19T16:52:05.443Z,95038.03
2023-02-19T16:54:31.885Z,95055.13
2023-02-19T16:56:58.474Z,95042.94
2023-02-19T16:59:24.864Z,95039.84
2023-02-19T17:01:51.461Z,95040.66
2023-02-19T17:04:17.902Z,95042.19
2023-02-19T17:06:45.539Z,95050.75
2023-02-19T17:09:12.049Z,95058.53
2023-02-19T17:11:38.528Z,95075.66
2023-02-19T17:14:05.012Z,95074.63
2023-02-19T17:16:39.644Z,95071.78
2023-02-19T17:19:14.289Z,95074.38
2023-02-19T17:21:41.403Z,95072.03
2023-02-19T17:24:07.918Z,95080.34
2023-02-19T17:26:34.354Z,95076.97
2023-02-19T17:29:04.316Z,95080.88
2023-02-19T17:31:31.659Z,95076.72
2023-02-19T17:33:58.975Z,95099.03
2023-02-19T17:36:30.763Z,95083.44
2023-02-19T17:38:59.134Z,95096.41
2023-02-19T17:41:25.959Z,95092.50
2023-02-19T17:43:52.411Z,95100.53
2023-02-19T17:46:24.761Z,95112.47
2023-02-19T17:48:51.562Z,95112.47
2023-02-19T17:51:18.021Z,95118.19
2023-02-19T17:53:46.444Z,95124.16
2023-02-19T17:56:19.607Z,95143.38
2023-02-19T17:58:46.222Z,95136.59
2023-02-19T18:01:13.782Z,95141.00
2023-02-19T18:03:40.411Z,95148.78
2023-02-19T18:06:07.223Z,95142.81
2023-02-19T18:08:33.667Z,95151.38
2023-02-19T18:11:00.809Z,95160.72
2023-02-19T18:13:27.262Z,95161.25
2023-02-19T18:15:53.681Z,95162.28
2023-02-19T18:18:23.113Z,95175.50
2023-02-19T18:20:49.980Z,95178.88
2023-02-19T18:23:16.558Z,95169.53
2023-02-19T18:25:43.008Z,95174.22
2023-02-19T18:28:09.471Z,95181.22
2023-02-19T18:30:35.932Z,95190.03
2023-02-19T18:33:02.426Z,95189.50
2023-02-19T18:35:28.807Z,95189.25
2023-02-19T18:37:55.839Z,95195.22
2023-02-19T18:40:25.833Z,95206.34
2023-02-19T18:42:52.352Z,95200.66
2023-02-19T18:45:19.034Z,95198.06
2023-02-19T18:47:47.284Z,95197.03
2023-02-19T18:50:13.801Z,95198.59
2023-02-19T18:52:40.218Z,95196.53
2023-02-19T18:55:07.184Z,95196.06
2023-02-19T18:57:33.589Z,95193.94
2023-02-19T18:59:59.959Z,95187.19
2023-02-19T19:02:28.255Z,95192.38
2023-02-19T19:04:57.072Z,95191.84
2023-02-19T19:07:23.531Z,95197.25
2023-02-19T19:09:50.245Z,95193.88
2023-02-19T19:12:16.948Z,95196.47
2023-02-19T19:14:44.665Z,95202.19
2023-02-19T19:17:11.167Z,95202.19
2023-02-19T19:19:37.620Z,95200.13
2023-02-19T19:22:04.022Z,95205.31
2023-02-19T19:24:30.407Z,95203.50
2023-02-19T19:26:56.810Z,95198.81
2023-02-19T19:29:23.617Z,95195.41
2023-02-19T19:31:50.586Z,95199.59
2023-02-19T19:34:17.574Z,95202.94
2023-02-19T19:36:44.270Z,95207.38
2023-02-19T19:39:10.856Z,95200.59
2023-02-19T19:41:37.319Z,95211.50
2023-02-19T19:44:05.834Z,95208.38
2023-02-19T19:46:33.531Z,95202.41
2023-02-19T19:49:00.153Z,95214.09
2023-02-19T19:51:34.055Z,95215.91
2023-02-19T19:54:03.005Z,95216.16
2023-02-19T19:56:30.173Z,95217.75
2023-02-19T19:58:56.580Z,95213.03
2023-02-19T20:01:23.599Z,95215.84
2023-02-19T20:03:51.100Z,95219.50
2023-02-19T20:06:29.699Z,95221.31
2023-02-19T20:08:56.531Z,95216.34
2023-02-19T20:11:23.406Z,95223.28
2023-02-19T20:13:49.923Z,95218.66
2023-02-19T20:16:16.394Z,95214.25
2023-02-19T20:18:42.833Z,95213.47
2023-02-19T20:21:10.613Z,95218.66
2023-02-19T20:23:40.283Z,95219.69
2023-02-19T20:26:07.333Z,95224.06
2023-02-19T20:28:33.758Z,95217.03
2023-02-19T20:31:00.531Z,95206.69
2023-02-19T20:33:27.045Z,95210.06
2023-02-19T20:35:53.459Z,95203.56
2023-02-19T20:38:19.861Z,95211.06
2023-02-19T20:40:46.366Z,95210.28
2023-02-19T20:43:12.785Z,95225.31
2023-02-19T20:45:40.891Z,95223.19
2023-02-19T20:48:07.285Z,95224.78
2023-02-19T20:50:33.666Z,95225.53
2023-02-19T20:53:00.058Z,95235.91
2023-02-19T20:55:26.520Z,95229.38
2023-02-19T20:57:52.922Z,95232.53
2023-02-19T21:00:19.888Z,95231.50
2023-02-19T21:02:46.382Z,95220.34
2023-02-19T21:05:13.450Z,95215.94
2023-02-19T21:07:39.928Z,95210.75
2023-02-19T21:10:06.869Z,95221.91
2023-02-19T21:12:33.793Z,95221.38
2023-02-19T21:15:00.204Z,95240.84
2023-02-19T21:17:26.660Z,95225.31
2023-02-19T21:19:53.211Z,95234.66
2023-02-19T21:22:19.655Z,95226.88
2023-02-19T21:24:49.495Z,95227.91
2023-02-19T21:27:15.917Z,95218.53
2023-02-19T21:29:42.295Z,95215.94
2023-02-19T21:32:08.777Z,95219.59
2023-02-19T21:34:35.293Z,95222.09
2023-02-19T21:37:01.673Z,95222.72
2023-02-19T21:39:28.124Z,95224.78
2023-02-19T21:41:54.615Z,95227.91
2023-02-19T21:44:21.638Z,95226.03
2023-02-19T21:46:48.394Z,95242.66
2023-02-19T21:49:14.885Z,95243.44
2023-02-19T21:51:43.766Z,95239.84
2023-02-19T21:54:15.488Z,95234.66
2023-02-19T21:56:41.999Z,95219.63
2023-02-19T21:59:08.625Z,95224.56
2023-02-19T22:01:40.416Z,95220.41
2023-02-19T22:04:07.687Z,95201.44
2023-02-19T22:06:34.573Z,95215.94
2023-02-19T22:09:01.580Z,95231.75
2023-02-19T22:11:28.007Z,95223.44
2023-02-19T22:13:54.401Z,95216.44
2023-02-19T22:16:20.883Z,95220.06
2023-02-19T22:18:52.680Z,95220.06
2023-02-19T22:21:19.973Z,95219.28
2023-02-19T22:23:47.879Z,95221.09
2023-02-19T22:26:22.435Z,95226.28
2023-02-19T22:28:49.021Z,95231.72
2023-02-19T22:31:17.548Z,95234.03
2023-02-19T22:33:44.015Z,95235.31
2023-02-19T22:36:14.678Z,95235.31
2023-02-19T22:38:41.085Z,95236.31
2023-02-19T22:41:07.541Z,95241.28
2023-02-19T22:43:33.954Z,95242.84
2023-02-19T22:46:00.423Z,95239.47
2023-02-19T22:48:30.147Z,95241.59
2023-02-19T22:50:58.752Z,95235.06
2023-02-19T22:53:25.327Z,95244.94
2023-02-19T22:55:51.708Z,95240.81
2023-02-19T22:58:18.112Z,95252.72
2023-02-19T23:00:44.514Z,95247.53
2023-02-19T23:03:10.953Z,95242.34
2023-02-19T23:05:37.357Z,95250.69
2023-02-19T23:08:03.936Z,95243.94
2023-02-19T23:10:30.329Z,95250.13
2023-02-19T23:12:56.737Z,95250.13
2023-02-19T23:15:23.111Z,95258.47
2023-02-19T23:17:49.571Z,95262.59
2023-02-19T23:20:16.080Z,95265.44
2023-02-19T23:22:43.540Z,95264.66
2023-02-19T23:25:09.925Z,95257.91
2023-02-19T23:27:36.333Z,95258.69
2023-02-19T23:30:02.924Z,95263.88
2023-02-19T23:32:29.367Z,95256.34
2023-02-19T23:34:55.749Z,95259.72
2023-02-19T23:37:22.168Z,95262.31
2023-02-19T23:39:48.576Z,95255.56
2023-02-19T23:42:18.888Z,95259.16
2023-02-19T23:44:48.664Z,95249.84
2023-02-19T23:47:15.144Z,95255.78
2023-02-19T23:49:41.971Z,95256.84
2023-02-19T23:52:08.483Z,95255.25
2023-02-19T23:54:35.026Z,95257.31
2023-02-19T23:57:01.509Z,95247.13
2023-02-19T23:59:27.977Z,95264.56
